createdAt,value
2019-03-13T00:00:36.999Z,9.30
2019-03-13T00:03:08.970Z,9.20
2019-03-13T00:05:40.419Z,9.10
2019-03-13T00:08:12.291Z,9.00
2019-03-13T00:10:43.884Z,8.90
2019-03-13T00:13:15.149Z,8.80
2019-03-13T00:15:49.624Z,8.70
2019-03-13T00:18:20.014Z,8.70
2019-03-13T00:20:51.611Z,8.60
2019-03-13T00:23:23.133Z,8.50
2019-03-13T00:25:54.888Z,8.40
2019-03-13T00:28:26.294Z,8.50
2019-03-13T00:30:58.260Z,8.40
2019-03-13T00:33:29.489Z,8.30
2019-03-13T00:36:01.390Z,8.20
2019-03-13T00:38:32.874Z,8.20
2019-03-13T00:41:04.173Z,8.00
2019-03-13T00:43:35.740Z,7.90
2019-03-13T00:46:07.836Z,7.90
2019-03-13T00:48:38.781Z,7.80
2019-03-13T00:51:09.796Z,7.80
2019-03-13T00:53:41.452Z,7.80
2019-03-13T00:56:12.416Z,7.80
2019-03-13T00:58:44.132Z,7.70
2019-03-13T01:01:33.116Z,7.50
2019-03-13T01:04:32.150Z,7.50
2019-03-13T01:07:09.474Z,7.50
2019-03-13T01:09:41.050Z,7.40
2019-03-13T01:12:12.945Z,7.30
2019-03-13T01:14:44.234Z,7.30
2019-03-13T01:17:15.781Z,7.30
2019-03-13T01:19:47.081Z,7.40
2019-03-13T01:22:18.378Z,7.40
2019-03-13T01:24:49.778Z,7.30
2019-03-13T01:27:21.635Z,7.20
2019-03-13T01:29:53.118Z,7.10
2019-03-13T01:32:42.556Z,7.00
2019-03-13T01:35:20.484Z,7.00
2019-03-13T01:37:52.123Z,7.00
2019-03-13T01:40:23.191Z,7.10
2019-03-13T01:42:54.715Z,7.00
2019-03-13T01:45:25.986Z,7.00
2019-03-13T01:47:57.846Z,6.90
2019-03-13T01:50:29.406Z,6.90
2019-03-13T01:53:00.643Z,6.90
2019-03-13T01:55:32.514Z,6.90
2019-03-13T01:58:03.769Z,6.90
2019-03-13T02:00:35.183Z,6.90
2019-03-13T02:03:07.322Z,6.90
2019-03-13T02:05:39.168Z,6.90
2019-03-13T02:08:10.988Z,7.00
2019-03-13T02:10:42.862Z,7.00
2019-03-13T02:13:14.769Z,7.00
2019-03-13T02:15:46.013Z,7.10
2019-03-13T02:18:17.592Z,7.10
2019-03-13T02:20:48.582Z,6.90
2019-03-13T02:23:19.588Z,6.80
2019-03-13T02:25:51.453Z,6.90
2019-03-13T02:28:23.178Z,6.90
2019-03-13T02:30:54.834Z,6.90
2019-03-13T02:33:26.377Z,6.80
2019-03-13T02:35:58.015Z,6.80
2019-03-13T02:38:29.885Z,6.70
2019-03-13T02:41:01.665Z,6.70
2019-03-13T02:43:33.191Z,6.80
2019-03-13T02:46:04.626Z,6.60
2019-03-13T02:48:35.933Z,6.60
2019-03-13T02:51:07.471Z,6.50
2019-03-13T02:53:39.013Z,6.50
2019-03-13T02:56:10.482Z,6.50
2019-03-13T02:58:41.988Z,6.50
2019-03-13T03:01:32.457Z,6.60
2019-03-13T03:04:06.145Z,6.50
2019-03-13T03:06:37.953Z,6.50
2019-03-13T03:09:11.145Z,6.50
2019-03-13T03:11:42.374Z,6.40
2019-03-13T03:14:13.921Z,6.40
2019-03-13T03:16:45.443Z,6.40
2019-03-13T03:19:17.185Z,6.40
2019-03-13T03:21:48.730Z,6.50
2019-03-13T03:24:20.791Z,6.50
2019-03-13T03:26:52.331Z,6.50
2019-03-13T03:29:23.920Z,6.60
2019-03-13T03:31:54.811Z,6.60
2019-03-13T03:34:26.356Z,6.50
2019-03-13T03:36:57.896Z,6.60
2019-03-13T03:39:29.442Z,6.70
2019-03-13T03:42:00.699Z,6.70
2019-03-13T03:44:32.564Z,6.70
2019-03-13T03:47:04.582Z,6.80
2019-03-13T03:49:36.428Z,6.80
2019-03-13T03:52:07.893Z,6.80
2019-03-13T03:54:39.125Z,6.80
2019-03-13T03:57:10.714Z,6.80
2019-03-13T03:59:42.601Z,6.80
2019-03-13T04:02:14.072Z,6.80
2019-03-13T04:04:45.045Z,6.90
2019-03-13T04:07:16.592Z,6.90
2019-03-13T04:09:48.151Z,6.90
2019-03-13T04:12:19.713Z,7.00
2019-03-13T04:14:50.723Z,7.00
2019-03-13T04:17:21.951Z,6.90
2019-03-13T04:19:53.167Z,6.80
2019-03-13T04:22:24.726Z,6.80
2019-03-13T04:25:05.538Z,6.80
2019-03-13T04:27:36.994Z,6.80
2019-03-13T04:30:08.974Z,6.80
2019-03-13T04:32:40.517Z,6.70
2019-03-13T04:35:12.694Z,6.80
2019-03-13T04:37:44.244Z,6.80
2019-03-13T04:40:16.058Z,6.80
2019-03-13T04:42:47.414Z,6.80
2019-03-13T04:45:18.947Z,6.80
2019-03-13T04:47:50.192Z,6.70
2019-03-13T04:50:20.820Z,6.80
2019-03-13T04:52:52.228Z,6.80
2019-03-13T04:55:24.061Z,6.90
2019-03-13T04:57:55.602Z,6.90
2019-03-13T05:00:27.472Z,6.80
2019-03-13T05:02:59.258Z,6.80
2019-03-13T05:06:09.614Z,6.90
2019-03-13T05:09:10.276Z,6.90
2019-03-13T05:11:42.212Z,6.80
2019-03-13T05:14:14.156Z,6.80
2019-03-13T05:16:46.097Z,6.80
2019-03-13T05:19:17.769Z,6.70
2019-03-13T05:21:49.286Z,6.70
2019-03-13T05:24:20.643Z,6.80
2019-03-13T05:33:24.970Z,6.90
2019-03-13T05:35:56.367Z,6.90
2019-03-13T05:38:40.852Z,6.80
2019-03-13T05:41:31.135Z,6.80
2019-03-13T05:44:10.735Z,6.80
2019-03-13T05:46:55.551Z,6.80
2019-03-13T05:50:02.038Z,6.80
2019-03-13T05:52:33.728Z,6.80
2019-03-13T05:55:05.036Z,6.80
2019-03-13T05:57:36.853Z,6.80
2019-03-13T06:00:08.115Z,6.80
2019-03-13T06:02:39.418Z,6.80
2019-03-13T06:05:10.928Z,6.80
2019-03-13T06:07:42.470Z,6.90
2019-03-13T06:10:13.974Z,6.90
2019-03-13T06:12:46.029Z,6.90
2019-03-13T06:15:17.989Z,7.00
2019-03-13T06:17:49.421Z,7.10
2019-03-13T06:20:20.778Z,7.00
2019-03-13T06:22:52.830Z,7.10
2019-03-13T06:25:24.737Z,7.10
2019-03-13T06:27:56.444Z,7.10
2019-03-13T06:30:28.241Z,7.10
2019-03-13T06:32:59.480Z,7.00
2019-03-13T06:35:31.023Z,7.00
2019-03-13T06:38:02.289Z,6.90
2019-03-13T06:40:33.527Z,6.90
2019-03-13T06:43:04.543Z,6.90
2019-03-13T06:45:36.106Z,6.80
2019-03-13T06:48:07.563Z,6.80
2019-03-13T06:50:39.425Z,6.60
2019-03-13T06:53:10.951Z,6.50
2019-03-13T06:55:41.934Z,6.40
2019-03-13T06:58:13.994Z,6.30
2019-03-13T07:01:22.454Z,6.10
2019-03-13T07:04:01.239Z,6.20
2019-03-13T07:06:42.808Z,5.90
2019-03-13T07:09:45.338Z,5.90
2019-03-13T07:12:43.282Z,5.80
2019-03-13T07:15:21.831Z,5.90
2019-03-13T07:17:57.454Z,5.70
2019-03-13T07:20:50.641Z,5.60
2019-03-13T07:23:35.591Z,5.60
2019-03-13T07:26:28.834Z,5.60
2019-03-13T07:29:21.133Z,5.40
2019-03-13T07:32:07.948Z,5.50
2019-03-13T07:34:48.445Z,5.70
2019-03-13T07:37:34.097Z,5.80
2019-03-13T07:40:12.316Z,5.90
2019-03-13T07:43:05.802Z,5.90
2019-03-13T07:45:50.517Z,5.80
2019-03-13T07:48:31.647Z,5.80
2019-03-13T07:51:27.333Z,5.90
2019-03-13T07:54:19.945Z,6.10
2019-03-13T07:57:04.508Z,6.30
2019-03-13T07:59:53.564Z,6.40
2019-03-13T08:02:42.382Z,6.40
2019-03-13T08:05:44.355Z,6.40
2019-03-13T08:08:33.759Z,6.40
2019-03-13T08:11:30.092Z,6.50
2019-03-13T08:14:22.997Z,6.60
2019-03-13T08:17:04.017Z,6.80
2019-03-13T08:20:09.469Z,6.90
2019-03-13T08:23:09.252Z,7.00
2019-03-13T08:26:11.623Z,7.30
2019-03-13T08:28:51.491Z,7.40
2019-03-13T08:31:50.973Z,7.40
2019-03-13T08:34:38.243Z,7.40
2019-03-13T08:37:31.496Z,7.50
2019-03-13T08:40:24.160Z,7.30
2019-03-13T08:43:23.635Z,7.50
2019-03-13T08:46:25.551Z,7.70
2019-03-13T08:49:15.420Z,7.70
2019-03-13T08:51:56.419Z,7.50
2019-03-13T08:54:35.987Z,7.60
2019-03-13T08:57:31.578Z,7.90
2019-03-13T09:00:20.633Z,8.00
2019-03-13T09:03:09.973Z,8.00
2019-03-13T09:06:06.083Z,8.10
2019-03-13T09:09:02.649Z,8.00
2019-03-13T09:11:40.532Z,8.10
2019-03-13T09:14:35.043Z,8.00
2019-03-13T09:17:21.361Z,8.10
2019-03-13T09:20:20.298Z,8.60
2019-03-13T09:23:10.535Z,8.60
2019-03-13T09:25:47.832Z,8.80
2019-03-13T09:28:39.418Z,8.70
2019-03-13T09:31:44.442Z,8.50
2019-03-13T09:34:21.131Z,8.20
2019-03-13T09:37:09.810Z,8.10
2019-03-13T09:40:00.039Z,8.00
2019-03-13T09:42:59.099Z,8.30
2019-03-13T09:45:47.344Z,8.60
2019-03-13T09:48:37.610Z,8.70
2019-03-13T09:51:19.689Z,8.80
2019-03-13T09:54:05.659Z,8.80
2019-03-13T09:57:02.390Z,8.80
2019-03-13T09:59:43.907Z,8.80
2019-03-13T10:02:29.278Z,8.70
2019-03-13T10:05:07.004Z,8.70
2019-03-13T10:07:55.274Z,8.60
2019-03-13T10:10:51.192Z,8.60
2019-03-13T10:13:44.356Z,8.40
2019-03-13T10:16:26.439Z,8.50
2019-03-13T10:19:19.705Z,8.60
2019-03-13T10:22:03.470Z,8.70
2019-03-13T10:24:52.316Z,8.80
2019-03-13T10:27:54.268Z,8.80
2019-03-13T10:30:42.911Z,8.80
2019-03-13T10:33:19.501Z,9.00
2019-03-13T10:36:08.153Z,9.20
2019-03-13T10:39:07.082Z,9.30
2019-03-13T10:41:47.913Z,9.60
2019-03-13T10:44:46.835Z,9.90
2019-03-13T10:47:40.355Z,10.00
2019-03-13T10:50:43.314Z,10.00
2019-03-13T10:53:48.569Z,9.70
2019-03-13T10:56:50.715Z,9.50
2019-03-13T10:59:40.538Z,8.90
2019-03-13T11:02:48.813Z,9.00
2019-03-13T11:05:37.888Z,9.20
2019-03-13T11:08:19.968Z,9.70
2019-03-13T11:11:16.359Z,9.70
2019-03-13T11:14:18.892Z,9.80
2019-03-13T11:17:04.313Z,10.10
2019-03-13T11:19:55.846Z,10.20
2019-03-13T11:22:53.162Z,10.50
2019-03-13T11:25:46.440Z,10.90
2019-03-13T11:28:45.240Z,11.10
2019-03-13T11:31:34.387Z,10.30
2019-03-13T11:34:13.265Z,9.90
2019-03-13T11:36:55.646Z,9.90
2019-03-13T11:39:38.944Z,10.00
2019-03-13T11:42:27.536Z,10.20
2019-03-13T11:45:17.979Z,10.00
2019-03-13T11:48:20.682Z,9.40
2019-03-13T11:51:09.637Z,9.10
2019-03-13T11:54:06.339Z,9.40
2019-03-13T11:56:59.227Z,9.50
2019-03-13T11:59:40.231Z,9.60
2019-03-13T12:02:29.215Z,10.10
2019-03-13T12:05:19.541Z,11.00
2019-03-13T12:08:15.442Z,11.70
2019-03-13T12:11:04.571Z,12.00
2019-03-13T12:13:53.605Z,12.00
2019-03-13T12:17:33.198Z,11.40
2019-03-13T12:20:43.826Z,10.90
2019-03-13T12:23:50.042Z,10.50
2019-03-13T12:27:43.826Z,10.40
2019-03-13T12:31:06.103Z,10.20
2019-03-13T12:33:39.112Z,10.00
2019-03-13T12:36:44.049Z,10.20
2019-03-13T12:39:29.300Z,10.40
2019-03-13T12:42:15.890Z,10.70
2019-03-13T12:44:58.296Z,10.70
2019-03-13T12:47:58.466Z,11.00
2019-03-13T12:51:00.650Z,10.70
2019-03-13T12:54:01.790Z,10.50
2019-03-13T12:56:50.813Z,10.40
2019-03-13T12:59:47.181Z,10.60
2019-03-13T13:02:37.753Z,10.70
2019-03-13T13:05:26.722Z,10.80
2019-03-13T13:08:20.128Z,11.40
2019-03-13T13:11:17.330Z,12.30
2019-03-13T13:14:04.914Z,12.30
2019-03-13T13:16:58.575Z,11.90
2019-03-13T13:19:30.259Z,12.00
2019-03-13T13:22:02.655Z,11.70
2019-03-13T13:24:33.938Z,11.80
2019-03-13T13:27:05.866Z,12.00
2019-03-13T13:29:37.560Z,12.40
2019-03-13T13:32:08.655Z,12.80
2019-03-13T13:34:39.795Z,13.10
2019-03-13T13:37:10.821Z,12.80
2019-03-13T13:39:42.879Z,12.10
2019-03-13T13:42:14.229Z,12.10
2019-03-13T13:44:45.364Z,12.00
2019-03-13T13:47:17.212Z,12.00
2019-03-13T13:49:59.287Z,11.90
2019-03-13T13:52:23.631Z,11.90
2019-03-13T13:54:55.698Z,11.60
2019-03-13T13:57:28.896Z,11.30
2019-03-13T14:00:00.767Z,11.00
2019-03-13T14:02:32.591Z,10.90
2019-03-13T14:05:04.223Z,11.00
2019-03-13T14:07:39.583Z,11.30
2019-03-13T14:10:11.383Z,11.30
2019-03-13T14:12:42.927Z,11.50
2019-03-13T14:15:14.506Z,11.70
2019-03-13T14:17:46.075Z,11.70
2019-03-13T14:20:17.515Z,11.60
2019-03-13T14:22:49.191Z,11.60
2019-03-13T14:25:20.749Z,11.50
2019-03-13T14:27:51.699Z,11.80
2019-03-13T14:30:23.989Z,12.00
2019-03-13T14:32:55.585Z,11.40
2019-03-13T14:35:26.385Z,11.20
2019-03-13T14:37:57.679Z,11.10
2019-03-13T14:40:28.757Z,10.80
2019-03-13T14:43:00.015Z,10.80
2019-03-13T14:45:31.741Z,10.60
2019-03-13T14:48:03.291Z,10.60
2019-03-13T14:50:36.456Z,10.60
2019-03-13T14:53:07.711Z,10.50
2019-03-13T14:55:38.700Z,10.50
2019-03-13T14:58:11.016Z,10.50
2019-03-13T15:00:42.259Z,10.40
2019-03-13T15:03:14.452Z,10.20
2019-03-13T15:05:46.060Z,10.20
2019-03-13T15:08:17.392Z,10.90
2019-03-13T15:10:49.081Z,11.60
2019-03-13T15:13:20.922Z,12.10
2019-03-13T15:15:52.149Z,12.00
2019-03-13T15:18:23.764Z,11.90
2019-03-13T15:20:55.036Z,12.00
2019-03-13T15:23:27.075Z,12.00
2019-03-13T15:25:58.685Z,11.90
2019-03-13T15:28:29.927Z,11.60
2019-03-13T15:31:01.858Z,11.10
2019-03-13T15:33:33.829Z,10.90
2019-03-13T15:36:05.721Z,10.80
2019-03-13T15:38:36.678Z,10.80
2019-03-13T15:41:08.190Z,10.70
2019-03-13T15:43:39.445Z,10.60
2019-03-13T15:46:11.203Z,10.60
2019-03-13T15:48:42.973Z,10.50
2019-03-13T15:51:14.316Z,10.50
2019-03-13T15:53:46.477Z,10.40
2019-03-13T15:56:18.177Z,10.30
2019-03-13T15:58:49.237Z,10.30
2019-03-13T16:01:21.022Z,10.30
2019-03-13T16:03:52.752Z,10.30
2019-03-13T16:06:24.328Z,10.40
2019-03-13T16:08:56.029Z,10.30
2019-03-13T16:11:27.818Z,10.20
2019-03-13T16:13:59.723Z,10.20
2019-03-13T16:16:31.501Z,10.00
2019-03-13T16:19:02.931Z,10.00
2019-03-13T16:21:34.963Z,9.90
2019-03-13T16:24:06.233Z,9.90
2019-03-13T16:26:37.784Z,9.80
2019-03-13T16:29:09.054Z,9.80
2019-03-13T16:31:40.615Z,9.90
2019-03-13T16:34:12.628Z,9.90
2019-03-13T16:36:43.968Z,9.80
2019-03-13T16:39:16.082Z,9.70
2019-03-13T16:41:47.972Z,9.60
2019-03-13T16:44:20.048Z,9.60
2019-03-13T16:46:51.307Z,9.60
2019-03-13T16:49:23.005Z,9.60
2019-03-13T16:51:54.933Z,9.60
2019-03-13T16:54:27.117Z,9.50
2019-03-13T16:56:59.197Z,9.40
2019-03-13T16:59:30.818Z,9.30
2019-03-13T17:02:02.719Z,9.30
2019-03-13T17:04:33.994Z,9.20
2019-03-13T17:07:05.262Z,9.10
2019-03-13T17:09:36.236Z,9.10
2019-03-13T17:12:08.132Z,9.20
2019-03-13T17:14:39.298Z,9.10
2019-03-13T17:17:10.940Z,9.10
2019-03-13T17:19:42.520Z,9.10
2019-03-13T17:22:13.862Z,9.10
2019-03-13T17:24:45.431Z,9.10
2019-03-13T17:27:17.516Z,9.00
2019-03-13T17:29:49.059Z,8.90
2019-03-13T17:32:20.698Z,8.90
2019-03-13T17:34:52.763Z,8.80
2019-03-13T17:37:23.767Z,8.50
2019-03-13T17:39:55.486Z,8.40
2019-03-13T17:42:27.285Z,8.20
2019-03-13T17:44:58.877Z,8.30
2019-03-13T17:47:30.606Z,8.10
2019-03-13T17:50:02.079Z,8.00
2019-03-13T17:52:34.088Z,7.80
2019-03-13T17:55:05.838Z,7.70
2019-03-13T17:57:37.823Z,7.70
2019-03-13T18:00:15.455Z,7.70
2019-03-13T18:02:47.361Z,7.60
2019-03-13T18:05:19.037Z,7.40
2019-03-13T18:07:51.485Z,7.40
2019-03-13T18:10:23.213Z,7.50
2019-03-13T18:12:54.816Z,7.50
2019-03-13T18:15:26.582Z,7.40
2019-03-13T18:17:57.580Z,7.40
2019-03-13T18:20:29.435Z,7.40
2019-03-13T18:23:01.820Z,7.40
2019-03-13T18:25:33.426Z,7.40
2019-03-13T18:28:04.955Z,7.20
2019-03-13T18:30:36.609Z,7.30
2019-03-13T18:33:07.097Z,7.20
2019-03-13T18:35:38.699Z,7.20
2019-03-13T18:38:10.816Z,7.10
2019-03-13T18:40:42.033Z,7.00
2019-03-13T18:43:14.363Z,7.00
2019-03-13T18:45:46.921Z,7.10
2019-03-13T18:48:18.885Z,7.00
2019-03-13T18:50:52.616Z,7.00
2019-03-13T18:53:36.986Z,7.10
2019-03-13T18:56:09.287Z,7.10
2019-03-13T18:58:41.788Z,7.10
2019-03-13T19:01:13.678Z,7.10
2019-03-13T19:03:45.838Z,7.10
2019-03-13T19:06:18.409Z,7.10
2019-03-13T19:08:50.958Z,7.20
2019-03-13T19:11:21.971Z,7.10
2019-03-13T19:13:53.725Z,7.10
2019-03-13T19:16:25.814Z,7.10
2019-03-13T19:18:58.151Z,7.20
2019-03-13T19:21:30.864Z,7.10
2019-03-13T19:24:03.198Z,7.20
2019-03-13T19:26:35.977Z,7.20
2019-03-13T19:29:09.135Z,7.30
2019-03-13T19:31:41.228Z,7.20
2019-03-13T19:34:12.567Z,7.30
2019-03-13T19:36:43.310Z,7.30
2019-03-13T19:39:14.929Z,7.20
2019-03-13T19:41:47.034Z,7.30
2019-03-13T19:44:21.145Z,7.30
2019-03-13T19:47:09.043Z,7.20
2019-03-13T19:49:44.389Z,7.30
2019-03-13T19:52:17.161Z,7.20
2019-03-13T19:55:10.790Z,7.20
2019-03-13T19:57:42.356Z,7.20
2019-03-13T20:00:21.304Z,7.20
2019-03-13T20:02:59.894Z,7.30
2019-03-13T20:05:29.880Z,7.30
2019-03-13T20:08:01.893Z,7.30
2019-03-13T20:10:35.747Z,7.30
2019-03-13T20:13:14.522Z,7.40
2019-03-13T20:15:47.090Z,7.50
2019-03-13T20:18:18.601Z,7.30
2019-03-13T20:20:53.313Z,7.20
2019-03-13T20:23:26.847Z,7.00
2019-03-13T20:26:19.502Z,7.00
2019-03-13T20:28:51.029Z,7.00
2019-03-13T20:31:35.965Z,7.00
2019-03-13T20:34:10.022Z,6.80
2019-03-13T20:36:44.272Z,6.80
2019-03-13T20:39:16.597Z,6.90
2019-03-13T20:41:49.196Z,6.80
2019-03-13T20:44:21.675Z,6.80
2019-03-13T20:46:53.847Z,6.80
2019-03-13T20:49:26.992Z,6.80
2019-03-13T20:51:59.880Z,6.80
2019-03-13T20:54:35.151Z,6.70
2019-03-13T20:57:07.569Z,6.60
2019-03-13T20:59:42.734Z,6.50
2019-03-13T21:02:14.512Z,6.50
2019-03-13T21:04:46.358Z,6.40
2019-03-13T21:07:18.096Z,6.40
2019-03-13T21:09:50.077Z,6.40
2019-03-13T21:12:23.091Z,6.40
2019-03-13T21:14:55.353Z,6.40
2019-03-13T21:17:28.741Z,6.50
2019-03-13T21:20:00.599Z,6.50
2019-03-13T21:22:33.067Z,6.50
2019-03-13T21:25:05.270Z,6.50
2019-03-13T21:27:37.126Z,6.40
2019-03-13T21:30:14.998Z,6.50
2019-03-13T21:32:47.219Z,6.50
2019-03-13T21:35:19.221Z,6.50
2019-03-13T21:37:50.227Z,6.50
2019-03-13T21:40:21.866Z,6.50
2019-03-13T21:42:54.784Z,6.40
2019-03-13T21:45:40.126Z,6.50
2019-03-13T21:48:00.279Z,6.40
2019-03-13T21:50:31.854Z,6.20
2019-03-13T21:53:03.616Z,6.20
2019-03-13T21:55:35.345Z,6.30
2019-03-13T21:58:06.275Z,6.40
2019-03-13T22:00:37.736Z,6.40
2019-03-13T22:03:09.597Z,6.40
2019-03-13T22:05:41.862Z,6.30
2019-03-13T22:08:13.524Z,6.40
2019-03-13T22:10:45.090Z,6.40
2019-03-13T22:13:16.474Z,6.40
2019-03-13T22:15:47.925Z,6.40
2019-03-13T22:18:19.497Z,6.40
2019-03-13T22:20:51.863Z,6.50
2019-03-13T22:23:23.464Z,6.40
2019-03-13T22:25:55.141Z,6.40
2019-03-13T22:28:27.165Z,6.40
2019-03-13T22:30:58.977Z,6.30
2019-03-13T22:33:30.053Z,6.40
2019-03-13T22:36:01.370Z,6.40
2019-03-13T22:38:32.616Z,6.40
2019-03-13T22:41:04.630Z,6.40
2019-03-13T22:43:36.174Z,6.50
2019-03-13T22:46:08.283Z,6.50
2019-03-13T22:48:39.836Z,6.50
2019-03-13T22:51:11.731Z,6.60
2019-03-13T22:53:43.017Z,6.50
2019-03-13T22:56:15.002Z,6.50
2019-03-13T22:58:46.892Z,6.60
2019-03-13T23:01:19.399Z,6.60
2019-03-13T23:03:52.510Z,6.50
2019-03-13T23:06:23.938Z,6.80
2019-03-13T23:08:55.816Z,6.80
2019-03-13T23:11:27.381Z,6.80
2019-03-13T23:13:59.048Z,6.60
2019-03-13T23:16:30.905Z,6.50
2019-03-13T23:19:02.560Z,6.50
2019-03-13T23:21:34.139Z,6.50
2019-03-13T23:24:05.562Z,6.40
2019-03-13T23:26:37.147Z,6.40
2019-03-13T23:29:08.711Z,6.30
2019-03-13T23:31:40.287Z,6.20
2019-03-13T23:34:11.975Z,6.20
2019-03-13T23:36:43.211Z,6.20
2019-03-13T23:39:15.553Z,6.20
2019-03-13T23:41:47.182Z,6.30
2019-03-13T23:44:18.198Z,6.20
2019-03-13T23:46:50.037Z,6.30
2019-03-13T23:49:21.333Z,6.30
2019-03-13T23:51:53.082Z,6.40
2019-03-13T23:54:24.986Z,6.30
2019-03-13T23:56:55.948Z,6.30
2019-03-13T23:59:27.274Z,6.30
